Time;durP1;ratioP1;P1;durP2;ratioP2;P2;SDS_P1;SDS_P2;PMS_P1;PMS_P2;Temp;Humidity;BMP_temperature;BMP_pressure;BME280_temperature;BME280_humidity;BME280_pressure;Samples;Min_cycle;Max_cycle;Signal;HPM_P1;HPM_P2
2022/05/24 00:01:00;;;;;;;4.30;3.22;;;;;;;18.11;69.29;63870.09;5045760;28;20267;-77
2022/05/24 00:03:27;;;;;;;4.93;3.05;;;;;;;18.16;69.00;63875.84;5048834;28;20201;-77
2022/05/24 00:05:54;;;;;;;3.25;2.95;;;;;;;18.17;68.86;63876.38;5049825;28;20280;-76
2022/05/24 00:08:21;;;;;;;3.55;3.05;;;;;;;18.21;67.40;63877.94;5047248;28;20265;-76
2022/05/24 00:10:49;;;;;;;3.33;3.08;;;;;;;18.22;68.03;63881.56;5043972;28;20248;-77
2022/05/24 00:13:17;;;;;;;3.33;3.03;;;;;;;18.19;68.80;63878.97;5046321;28;20197;-76
2022/05/24 00:15:44;;;;;;;4.80;3.00;;;;;;;18.18;68.18;63880.50;5046535;28;20462;-77
2022/05/24 00:18:13;;;;;;;3.55;3.00;;;;;;;18.13;70.70;63877.88;5044521;28;20393;-75
2022/05/24 00:20:43;;;;;;;2.95;2.75;;;;;;;17.97;73.04;63858.09;5044778;28;20239;-76
2022/05/24 00:23:10;;;;;;;3.10;2.90;;;;;;;17.84;72.13;63839.41;5046088;28;20416;-77
2022/05/24 00:25:39;;;;;;;3.35;3.05;;;;;;;17.83;72.65;63846.63;5045726;28;20542;-76
2022/05/24 00:28:07;;;;;;;3.38;3.08;;;;;;;17.64;73.60;63819.09;5043613;28;20224;-76
2022/05/24 00:30:37;;;;;;;3.58;3.38;;;;;;;17.42;75.91;63803.38;5046074;28;20243;-77
2022/05/24 00:33:04;;;;;;;4.63;3.60;;;;;;;17.21;77.90;63779.44;5045751;28;20499;-76
2022/05/24 00:35:32;;;;;;;5.72;3.85;;;;;;;16.85;81.18;63739.94;5046119;28;20228;-76
2022/05/24 00:37:59;;;;;;;4.28;3.47;;;;;;;16.86;80.96;63740.97;5044248;28;20373;-77
2022/05/24 00:40:39;;;;;;;4.30;3.90;;;;;;;16.79;81.34;63735.75;5045975;28;20228;-76
2022/05/24 00:43:11;;;;;;;3.47;3.08;;;;;;;16.43;84.67;63698.78;5045962;28;20193;-76
2022/05/24 00:45:45;;;;;;;3.83;3.63;;;;;;;16.24;87.05;63678.50;5044281;28;20368;-77
2022/05/24 00:48:21;;;;;;;9.85;4.07;;;;;;;15.96;90.44;63647.34;5044065;28;20453;-76
2022/05/24 00:50:51;;;;;;;4.10;3.80;;;;;;;16.08;90.98;63657.75;5047222;28;20228;-76
2022/05/24 00:53:23;;;;;;;4.15;3.50;;;;;;;16.05;91.92;63657.22;5047630;28;20217;-76
2022/05/24 00:55:54;;;;;;;3.97;3.67;;;;;;;16.04;92.42;63655.66;5045213;28;20222;-75
2022/05/24 00:58:39;;;;;;;4.72;4.18;;;;;;;16.11;91.92;63660.88;5047941;28;20208;-76
2022/05/24 01:01:31;;;;;;;3.65;3.38;;;;;;;15.84;94.50;63635.38;5047612;28;20245;-77
2022/05/24 01:03:58;;;;;;;6.28;3.72;;;;;;;15.97;94.44;63651.47;5045766;28;20216;-75
2022/05/24 01:06:25;;;;;;;3.63;3.38;;;;;;;16.09;93.04;63663.94;5030296;28;20206;-76
2022/05/24 01:08:54;;;;;;;4.45;3.22;;;;;;;16.16;92.40;63673.78;5025990;28;20491;-75
2022/05/24 01:11:23;;;;;;;5.75;3.47;;;;;;;16.26;91.14;63678.00;5035025;28;20272;-76
2022/05/24 01:13:52;;;;;;;3.75;3.47;;;;;;;16.20;90.46;63675.38;5044283;28;20208;-76
2022/05/24 01:16:20;;;;;;;4.07;3.17;;;;;;;16.22;94.56;63671.28;5045913;28;20197;-77
2022/05/24 01:18:47;;;;;;;3.63;3.25;;;;;;;16.26;94.89;63675.97;5043977;28;20199;-77
2022/05/24 01:21:16;;;;;;;4.32;3.42;;;;;;;16.39;91.83;63691.53;5024522;28;20225;-76
2022/05/24 01:23:54;;;;;;;6.30;3.33;;;;;;;16.39;91.99;63692.06;5036872;28;20202;-76
2022/05/24 01:26:30;;;;;;;3.53;3.20;;;;;;;16.38;89.09;63688.44;5045595;28;20197;-76
2022/05/24 01:29:01;;;;;;;3.72;3.30;;;;;;;16.52;86.83;63702.50;5043313;28;20533;-76
2022/05/24 01:36:09;;;;;;;4.63;3.45;;;;;;;16.57;85.72;63710.78;5043640;28;20193;-76
2022/05/24 01:37:06;;;;;;;3.30;3.00;;;;;;;16.58;83.67;63713.91;4999204;28;20239;-77
2022/05/24 01:39:33;;;;;;;3.08;2.88;;;;;;;16.48;88.62;63696.28;5044009;28;20284;-77
2022/05/24 01:42:00;;;;;;;5.30;3.42;;;;;;;16.40;89.75;63690.53;5030366;28;20248;-77
2022/05/24 01:44:35;;;;;;;5.82;2.88;;;;;;;16.38;88.71;63687.91;5024783;28;20411;-77
2022/05/24 01:47:02;;;;;;;3.53;3.22;;;;;;;16.27;89.13;63679.59;5028823;28;20543;-77
2022/05/24 01:49:33;;;;;;;3.72;3.53;;;;;;;16.29;87.90;63686.28;5041995;28;20236;-77
2022/05/24 01:52:05;;;;;;;3.92;3.08;;;;;;;16.07;89.81;63656.72;5043741;28;20193;-77
2022/05/24 01:54:36;;;;;;;3.63;3.40;;;;;;;16.08;90.59;63655.19;5033339;28;20222;-76
2022/05/24 01:57:10;;;;;;;3.42;3.22;;;;;;;16.12;90.02;63669.63;5026002;28;20226;-76
2022/05/24 01:59:40;;;;;;;3.60;3.33;;;;;;;16.16;90.14;63665.56;5042282;28;20576;-77
2022/05/24 02:02:07;;;;;;;6.28;3.28;;;;;;;16.26;89.42;63678.00;5044585;28;20198;-77
2022/05/24 02:04:34;;;;;;;3.22;2.92;;;;;;;16.29;88.81;63681.13;5044626;28;20488;-77
2022/05/24 02:07:05;;;;;;;3.78;3.47;;;;;;;16.32;88.43;63684.78;5042159;28;20201;-77
2022/05/24 02:09:33;;;;;;;3.40;3.15;;;;;;;16.28;88.85;63683.19;5042539;28;20289;-76
2022/05/24 02:12:03;;;;;;;3.58;3.38;;;;;;;16.32;89.11;63684.78;5043992;28;20442;-76
2022/05/24 02:14:34;;;;;;;3.78;3.47;;;;;;;16.37;87.84;63686.88;5044321;28;20228;-78
2022/05/24 02:17:08;;;;;;;3.25;3.05;;;;;;;16.37;88.88;63689.97;5041940;28;20292;-77
2022/05/24 02:19:38;;;;;;;3.42;3.22;;;;;;;16.34;89.45;63681.72;5029564;28;20221;-77
2022/05/24 02:22:10;;;;;;;3.42;3.13;;;;;;;16.41;89.15;63696.69;5043556;28;20566;-77
2022/05/24 02:24:36;;;;;;;3.75;3.45;;;;;;;16.44;89.02;63696.72;5042748;28;20255;-77
2022/05/24 02:27:05;;;;;;;4.05;3.67;;;;;;;16.51;89.18;63699.41;5035816;28;20198;-76
2022/05/24 02:29:32;;;;;;;3.20;3.00;;;;;;;16.34;91.00;63692.00;5034621;28;20838;-76
2022/05/24 02:31:59;;;;;;;3.10;2.90;;;;;;;16.24;91.78;63679.00;5024033;28;20202;-77
2022/05/24 02:34:28;;;;;;;3.80;3.50;;;;;;;16.25;90.93;63680.06;5023328;28;20527;-76
2022/05/24 02:36:54;;;;;;;4.22;3.33;;;;;;;16.27;91.64;63676.47;5041194;28;20201;-76
2022/05/24 02:39:21;;;;;;;4.70;3.30;;;;;;;15.99;93.32;63650.97;5043263;28;20228;-76
2022/05/24 02:41:47;;;;;;;3.63;3.42;;;;;;;15.87;95.67;63633.38;5043238;28;20229;-76
2022/05/24 02:44:16;;;;;;;3.67;3.47;;;;;;;15.98;94.90;63649.41;5042018;28;20205;-76
2022/05/24 02:46:45;;;;;;;4.18;3.90;;;;;;;15.95;95.78;63646.28;5042959;28;20201;-76
2022/05/24 02:49:12;;;;;;;4.53;4.20;;;;;;;15.82;97.39;63633.31;5042817;28;20193;-76
2022/05/24 02:51:44;;;;;;;4.68;4.25;;;;;;;15.88;97.51;63634.41;5043914;28;20194;-76
2022/05/24 02:54:11;;;;;;;4.63;4.18;;;;;;;15.99;96.93;63650.97;5038016;28;20224;-76
2022/05/24 02:56:38;;;;;;;4.57;3.95;;;;;;;16.08;96.77;63659.81;5044564;28;20198;-76
2022/05/24 02:59:05;;;;;;;4.68;4.18;;;;;;;16.20;95.27;63672.81;5043794;28;20198;-76
2022/05/24 03:01:33;;;;;;;5.15;4.47;;;;;;;16.20;95.16;63672.31;5049912;28;20236;-76
2022/05/24 03:04:01;;;;;;;4.88;3.85;;;;;;;16.22;96.30;63673.84;5050454;28;20212;-76
2022/05/24 03:06:28;;;;;;;4.57;4.18;;;;;;;16.19;95.63;63674.34;5048262;28;20224;-77
2022/05/24 03:14:25;;;;;;;4.82;4.25;;;;;;;16.04;98.70;63653.59;5023962;28;20245;-76
2022/05/24 03:16:54;;;;;;;5.68;4.10;;;;;;;16.15;97.80;63661.97;5037952;28;20206;-77
2022/05/24 03:19:21;;;;;;;4.68;4.28;;;;;;;16.24;96.73;63675.94;5030772;28;20281;-76
2022/05/24 03:21:49;;;;;;;4.85;4.35;;;;;;;16.30;96.84;63682.16;5039508;28;20241;-76
2022/05/24 03:24:17;;;;;;;4.60;4.30;;;;;;;16.32;96.31;63689.41;5043271;28;20229;-77
2022/05/24 03:26:44;;;;;;;5.15;3.78;;;;;;;16.35;95.88;63689.94;5041803;28;20197;-75
2022/05/24 03:29:11;;;;;;;4.85;4.55;;;;;;;16.38;95.69;63687.91;5041961;28;20452;-77
2022/05/24 03:31:38;;;;;;;4.70;4.40;;;;;;;16.43;94.54;63693.63;5030556;28;20209;-76
2022/05/24 03:34:05;;;;;;;4.00;3.80;;;;;;;16.41;94.51;63696.19;5023316;28;20215;-76
2022/05/24 03:36:32;;;;;;;4.47;4.10;;;;;;;16.39;94.62;63691.53;5038779;28;20288;-76
2022/05/24 03:38:59;;;;;;;4.35;4.05;;;;;;;16.36;94.76;63693.56;5041684;28;20197;-76
2022/05/24 03:41:27;;;;;;;4.97;4.68;;;;;;;16.31;95.41;63681.16;5042447;28;20237;-77
2022/05/24 03:43:54;;;;;;;7.00;3.78;;;;;;;16.14;98.94;63661.44;5045419;28;20206;-79
2022/05/24 03:46:21;;;;;;;5.05;3.92;;;;;;;15.93;100.00;63641.63;5045339;28;20252;-77
2022/05/24 03:48:48;;;;;;;5.68;4.95;;;;;;;16.02;100.00;63654.09;5042221;28;20221;-77
2022/05/24 03:51:15;;;;;;;4.55;3.70;;;;;;;16.03;98.53;63652.56;5036657;28;20236;-77
2022/05/24 03:53:42;;;;;;;6.22;4.05;;;;;;;16.05;97.81;63659.25;5044952;28;20505;-77
2022/05/24 03:56:09;;;;;;;4.40;4.10;;;;;;;16.14;97.18;63671.72;5047864;28;20555;-77
2022/05/24 03:58:38;;;;;;;7.05;4.03;;;;;;;16.23;96.61;63672.84;5045283;28;20221;-75
2022/05/24 04:01:04;;;;;;;4.97;4.57;;;;;;;16.35;95.22;63685.31;5049912;28;20348;-78
2022/05/24 04:03:31;;;;;;;5.07;4.57;;;;;;;16.39;94.63;63688.97;5051286;28;20201;-77
2022/05/24 04:05:58;;;;;;;4.18;3.85;;;;;;;16.37;95.11;63692.53;5046227;28;20236;-77
2022/05/24 04:08:26;;;;;;;4.07;3.78;;;;;;;16.51;93.04;63707.13;5046308;28;20210;-77
2022/05/24 04:11:00;;;;;;;4.75;4.13;;;;;;;16.65;91.98;63716.03;5042797;28;20394;-75
2022/05/24 04:13:27;;;;;;;4.20;3.90;;;;;;;16.73;91.35;63729.50;5047339;28;20205;-77
2022/05/24 04:15:55;;;;;;;6.60;4.40;;;;;;;16.67;90.64;63723.78;5040246;28;20224;-77
2022/05/24 04:18:22;;;;;;;4.63;4.32;;;;;;;16.70;91.74;63719.19;5043791;28;20217;-77
2022/05/24 04:20:49;;;;;;;4.20;3.90;;;;;;;16.85;92.09;63736.84;5042821;28;20249;-76
2022/05/24 04:23:17;;;;;;;4.28;3.97;;;;;;;16.70;93.46;63723.81;5045011;28;20272;-77
2022/05/24 04:25:44;;;;;;;5.15;4.78;;;;;;;16.74;93.28;63727.97;5046689;28;20256;-77
2022/05/24 04:28:11;;;;;;;5.00;4.45;;;;;;;16.89;91.80;63744.09;5043116;28;20236;-76
2022/05/24 04:30:41;;;;;;;4.88;4.25;;;;;;;16.96;91.72;63748.28;5044785;28;20217;-77
2022/05/24 04:33:09;;;;;;;4.43;4.13;;;;;;;17.01;94.22;63759.16;5043536;28;20202;-76
2022/05/24 04:35:39;;;;;;;4.75;4.43;;;;;;;17.12;92.34;63770.59;5046119;28;20221;-77
2022/05/24 04:38:10;;;;;;;5.30;4.68;;;;;;;17.34;88.13;63790.94;5046831;28;20229;-78
2022/05/24 04:43:31;;;;;;;6.32;4.63;;;;;;;17.33;90.82;63786.78;5042912;28;20296;-79
2022/05/24 04:45:58;;;;;;;4.85;4.50;;;;;;;17.40;92.14;63799.22;5046096;28;20235;-77
2022/05/24 04:48:27;;;;;;;5.10;4.60;;;;;;;17.40;92.23;63794.09;5048001;28;20197;-76
2022/05/24 04:50:54;;;;;;;8.93;5.88;;;;;;;17.26;94.52;63779.50;5046888;28;20218;-77
2022/05/24 04:53:22;;;;;;;9.38;5.78;;;;;;;17.11;94.23;63767.00;5047316;28;20204;-76
2022/05/24 04:55:49;;;;;;;7.05;5.30;;;;;;;16.99;94.63;63748.84;5045368;28;20217;-78
2022/05/24 04:58:16;;;;;;;6.75;5.13;;;;;;;17.00;92.40;63758.13;5046441;28;20204;-76
2022/05/24 05:00:43;;;;;;;7.55;6.38;;;;;;;16.81;91.49;63733.19;5046978;28;20229;-78
2022/05/24 05:03:13;;;;;;;9.65;5.85;;;;;;;16.84;90.42;63738.38;5050222;28;20389;-80
2022/05/24 05:05:48;;;;;;;9.50;5.30;;;;;;;16.53;92.26;63709.19;5046392;28;20555;-76
2022/05/24 05:08:16;;;;;;;9.73;5.47;;;;;;;16.62;93.68;63713.44;5047805;28;20193;-77
2022/05/24 05:10:42;;;;;;;8.98;6.07;;;;;;;16.60;94.63;63713.91;5043310;28;20225;-77
2022/05/24 05:13:10;;;;;;;7.82;6.55;;;;;;;16.57;95.79;63712.84;5045073;28;20190;-76
2022/05/24 05:15:37;;;;;;;9.43;6.00;;;;;;;16.34;96.75;63683.78;5042676;28;20331;-77
2022/05/24 05:18:05;;;;;;;15.27;6.35;;;;;;;16.48;97.97;63698.84;5044309;28;20213;-76
2022/05/24 05:20:32;;;;;;;9.45;6.10;;;;;;;16.48;99.30;63704.00;5044351;28;20300;-76
2022/05/24 05:23:00;;;;;;;8.55;5.55;;;;;;;16.55;97.86;63713.84;5044109;28;20201;-76
2022/05/24 05:25:27;;;;;;;13.13;5.90;;;;;;;16.73;97.59;63726.94;5042839;28;20459;-76
2022/05/24 05:27:54;;;;;;;8.98;6.13;;;;;;;16.77;96.31;63731.09;5043410;28;20201;-77
2022/05/24 05:33:06;;;;;;;9.48;5.78;;;;;;;16.71;95.74;63725.38;5025375;28;20252;-78
2022/05/24 05:35:33;;;;;;;10.95;6.15;;;;;;;16.39;96.01;63691.53;5038181;28;20295;-77
2022/05/24 05:38:01;;;;;;;6.22;5.72;;;;;;;16.37;96.77;63689.44;5044288;28;20197;-77
2022/05/24 05:40:28;;;;;;;13.93;6.75;;;;;;;16.50;96.96;63703.50;5044759;28;20252;-77
2022/05/24 05:42:55;;;;;;;7.72;6.03;;;;;;;16.62;97.51;63715.50;5045437;28;20201;-76
2022/05/24 05:45:21;;;;;;;8.02;6.30;;;;;;;16.74;95.76;63728.47;5043201;28;20221;-76
2022/05/24 05:47:49;;;;;;;12.45;6.38;;;;;;;16.54;96.27;63710.25;5039979;28;20214;-77
2022/05/24 05:50:16;;;;;;;8.30;5.68;;;;;;;16.68;95.45;63721.72;5044138;28;20595;-77
2022/05/24 05:52:43;;;;;;;7.43;6.60;;;;;;;16.81;94.84;63738.34;5044405;28;20205;-77
2022/05/24 05:55:12;;;;;;;8.27;5.63;;;;;;;16.68;95.62;63721.72;5040837;28;20217;-77
2022/05/24 05:57:39;;;;;;;11.05;6.85;;;;;;;16.91;94.35;63745.66;5042645;28;20385;-77
2022/05/24 06:00:09;;;;;;;8.18;6.57;;;;;;;17.37;92.63;63793.00;5043529;28;20288;-75
2022/05/24 06:02:36;;;;;;;10.23;5.93;;;;;;;17.41;91.40;63794.63;5026766;28;20232;-76
2022/05/24 06:05:03;;;;;;;16.02;6.57;;;;;;;17.25;90.06;63783.63;5041446;28;20251;-76
2022/05/24 06:07:29;;;;;;;11.63;6.13;;;;;;;17.39;89.65;63795.09;5044147;28;20247;-77
2022/05/24 06:09:56;;;;;;;6.47;5.57;;;;;;;17.79;88.97;63837.28;5045099;28;20217;-76
2022/05/24 06:12:24;;;;;;;7.20;6.10;;;;;;;18.17;85.85;63876.38;5047363;28;20202;-77
2022/05/24 06:14:51;;;;;;;11.82;6.75;;;;;;;18.36;83.82;63893.59;5048125;28;20219;-77
2022/05/24 06:17:18;;;;;;;7.78;6.22;;;;;;;18.47;81.57;63910.22;5045491;28;20197;-77
2022/05/24 06:19:46;;;;;;;9.35;5.93;;;;;;;18.31;81.10;63890.94;5046743;28;20263;-77
2022/05/24 06:22:13;;;;;;;12.05;6.25;;;;;;;18.22;80.80;63884.16;5049782;28;20250;-76
2022/05/24 06:24:39;;;;;;;7.00;6.38;;;;;;;18.25;81.27;63882.63;5050959;28;20219;-77
2022/05/24 06:27:07;;;;;;;10.57;7.10;;;;;;;18.18;81.37;63877.41;5045546;28;20402;-77
2022/05/24 06:29:36;;;;;;;15.70;6.15;;;;;;;18.25;80.69;63884.69;5044939;28;20313;-76
2022/05/24 06:32:05;;;;;;;10.07;6.03;;;;;;;18.19;79.67;63878.44;5043763;28;20451;-77
2022/05/24 06:34:32;;;;;;;9.40;6.47;;;;;;;18.39;80.16;63896.69;5044949;28;20221;-76
2022/05/24 06:37:00;;;;;;;9.82;6.28;;;;;;;18.50;78.99;63910.75;5045174;28;20236;-77
2022/05/24 06:39:27;;;;;;;8.38;6.47;;;;;;;18.76;76.11;63935.28;5039409;28;20396;-76
2022/05/24 06:41:54;;;;;;;12.35;5.85;;;;;;;18.66;77.52;63929.47;5043592;28;20233;-76
2022/05/24 06:44:21;;;;;;;7.82;5.85;;;;;;;18.49;79.52;63909.72;5044772;28;20431;-76
2022/05/24 06:46:49;;;;;;;7.63;6.47;;;;;;;18.77;80.08;63944.06;5043139;28;20262;-76
2022/05/24 06:49:15;;;;;;;6.53;5.80;;;;;;;18.71;80.28;63932.63;5045993;28;20413;-77
2022/05/24 06:51:44;;;;;;;13.40;6.90;;;;;;;19.20;79.47;63986.31;5040210;28;20201;-77
2022/05/24 06:54:11;;;;;;;10.70;6.95;;;;;;;19.32;77.03;63998.31;5044671;28;20252;-78
2022/05/24 06:56:42;;;;;;;10.48;6.53;;;;;;;19.41;74.99;64010.81;5045859;28;20197;-79
2022/05/24 07:04:42;;;;;;;10.15;5.60;;;;;;;19.71;74.66;64035.91;5050789;28;20267;-80
2022/05/24 07:07:11;;;;;;;8.40;6.70;;;;;;;19.89;73.30;64052.06;5046919;28;20193;-78
2022/05/24 07:09:40;;;;;;;9.05;6.43;;;;;;;19.93;74.11;64056.25;5042370;28;20217;-77
2022/05/24 07:12:08;;;;;;;9.15;6.32;;;;;;;19.98;68.78;64064.06;5044440;28;20199;-76
2022/05/24 07:14:35;;;;;;;12.63;5.90;;;;;;;19.88;70.13;64056.22;5043900;28;20289;-76
2022/05/24 07:17:03;;;;;;;8.13;6.20;;;;;;;19.88;70.15;64056.22;5051655;28;20232;-78
2022/05/24 07:19:32;;;;;;;10.20;5.88;;;;;;;20.29;67.51;64094.38;5042925;28;20213;-77
2022/05/24 07:21:59;;;;;;;5.78;4.63;;;;;;;20.36;69.73;64101.66;5045656;28;20295;-81
2022/05/24 07:24:26;;;;;;;7.55;5.78;;;;;;;20.61;68.35;64129.81;5041526;28;20217;-79
2022/05/24 07:26:53;;;;;;;10.10;5.90;;;;;;;20.85;63.93;64152.28;5044579;28;20221;-80
2022/05/24 07:29:20;;;;;;;6.40;5.80;;;;;;;20.47;65.77;64118.31;5046354;28;20232;-79
2022/05/24 07:31:46;;;;;;;7.15;5.65;;;;;;;20.24;66.44;64094.31;5045548;28;20197;-79
2022/05/24 07:34:15;;;;;;;7.65;5.95;;;;;;;20.06;66.96;64072.94;5046207;28;20229;-79
2022/05/24 07:36:42;;;;;;;8.77;5.90;;;;;;;20.26;66.12;64091.22;5037069;28;20239;-79
2022/05/24 07:39:09;;;;;;;16.52;6.82;;;;;;;20.46;66.75;64111.56;5045209;28;20232;-78
2022/05/24 07:47:19;;;;;;;10.93;5.68;;;;;;;21.05;64.35;64175.78;4985012;28;20229;-80
2022/05/24 07:49:48;;;;;;;6.05;5.53;;;;;;;20.98;63.32;64173.09;5038720;28;20231;-77
2022/05/24 07:52:15;;;;;;;10.88;5.95;;;;;;;21.19;64.71;64187.28;5040892;28;20210;-79
2022/05/24 07:54:42;;;;;;;10.38;5.47;;;;;;;21.64;62.91;64242.56;5032779;28;20241;-79
2022/05/24 07:57:09;;;;;;;11.68;6.60;;;;;;;21.92;59.55;64268.75;5036608;28;20194;-80
2022/05/24 07:59:37;;;;;;;9.10;6.00;;;;;;;21.82;60.60;64260.88;5035595;28;20217;-79
2022/05/24 08:02:05;;;;;;;7.20;6.30;;;;;;;21.70;61.22;64240.56;5038581;28;20226;-79
2022/05/24 08:04:32;;;;;;;7.20;5.93;;;;;;;21.71;60.77;64244.19;5038439;28;20277;-78
2022/05/24 08:07:00;;;;;;;11.05;5.80;;;;;;;21.75;59.25;64250.97;5037249;28;20194;-79
2022/05/24 08:09:27;;;;;;;10.05;6.28;;;;;;;21.74;59.37;64249.91;5033122;28;20285;-81
2022/05/24 08:11:54;;;;;;;10.38;6.45;;;;;;;21.81;60.96;64251.53;5039629;28;20209;-80
2022/05/24 08:14:21;;;;;;;7.93;5.70;;;;;;;21.97;60.88;64270.84;5033861;28;20225;-79
2022/05/24 08:16:48;;;;;;;8.63;6.72;;;;;;;21.65;62.64;64241.03;5034900;28;20219;-78
2022/05/24 08:19:14;;;;;;;6.50;5.43;;;;;;;21.70;60.22;64243.66;5041130;28;20455;-80
2022/05/24 08:21:41;;;;;;;8.65;5.65;;;;;;;22.07;57.74;64283.91;5040540;28;20225;-80
2022/05/24 08:24:10;;;;;;;12.40;6.22;;;;;;;21.87;58.27;64263.00;5040597;28;20384;-79
2022/05/24 08:26:38;;;;;;;6.65;5.93;;;;;;;21.66;59.35;64242.06;5046008;28;20205;-79
2022/05/24 08:29:05;;;;;;;9.45;5.43;;;;;;;21.75;61.17;64250.97;5043103;28;20204;-81
2022/05/24 08:31:32;;;;;;;5.68;5.20;;;;;;;21.92;58.83;64265.63;5042264;28;20201;-79
2022/05/24 08:33:59;;;;;;;10.73;7.13;;;;;;;22.18;57.85;64293.31;5043487;28;20220;-79
2022/05/24 08:36:27;;;;;;;9.45;6.38;;;;;;;22.00;59.36;64271.94;5041659;28;20205;-79
2022/05/24 08:38:55;;;;;;;10.63;5.90;;;;;;;22.35;56.51;64308.50;5043427;28;20260;-78
2022/05/24 08:41:32;;;;;;;6.78;6.15;;;;;;;22.67;56.04;64347.16;5034003;28;20490;-78
2022/05/24 08:49:56;;;;;;;14.23;7.25;;;;;;;22.76;55.76;64353.47;5036060;28;20213;-76
2022/05/24 08:52:33;;;;;;;12.32;7.35;;;;;;;22.72;55.63;64349.25;5028298;28;20225;-77
2022/05/24 08:55:00;;;;;;;7.72;5.45;;;;;;;22.84;57.68;64359.75;5043959;28;20224;-76
2022/05/24 08:57:39;;;;;;;6.22;5.63;;;;;;;23.04;55.71;64380.13;5033991;28;20629;-77
2022/05/24 09:00:10;;;;;;;5.63;5.05;;;;;;;23.04;56.60;64384.81;5036945;28;20213;-77
2022/05/24 09:02:41;;;;;;;5.45;4.55;;;;;;;23.15;60.28;64396.31;5035421;28;20513;-77
2022/05/24 09:05:21;;;;;;;15.98;5.43;;;;;;;23.14;57.65;64395.25;5038789;28;20272;-77
2022/05/24 09:08:06;;;;;;;5.43;5.03;;;;;;;22.94;59.37;64372.28;5034625;28;20197;-77
2022/05/24 09:10:43;;;;;;;9.70;5.22;;;;;;;23.01;59.97;64377.00;5034780;28;20553;-77
2022/05/24 09:13:22;;;;;;;5.78;5.22;;;;;;;23.43;60.77;64423.56;5039135;28;20216;-76
2022/05/24 09:16:20;;;;;;;7.93;5.50;;;;;;;23.46;58.43;64426.16;5034750;28;20217;-77
2022/05/24 09:18:55;;;;;;;10.15;5.00;;;;;;;23.37;58.40;64419.34;5037064;28;20194;-76
2022/05/24 09:21:26;;;;;;;6.15;4.85;;;;;;;23.75;57.49;64457.03;5035690;28;20193;-77
2022/05/24 09:24:01;;;;;;;6.50;5.68;;;;;;;24.05;58.07;64490.00;5033510;28;20213;-77
2022/05/24 09:26:29;;;;;;;5.28;4.88;;;;;;;24.20;56.73;64501.00;5036452;28;20201;-76
2022/05/24 09:29:08;;;;;;;6.63;5.35;;;;;;;24.14;56.17;64497.34;5044901;28;20239;-78
2022/05/24 09:31:40;;;;;;;8.98;5.10;;;;;;;23.92;55.95;64474.28;5043967;28;20193;-77
2022/05/24 09:34:23;;;;;;;8.60;4.85;;;;;;;24.05;59.73;64487.91;5044235;28;20517;-76
2022/05/24 09:36:55;;;;;;;5.88;5.28;;;;;;;24.24;55.03;64509.88;5046310;28;20217;-76
2022/05/24 09:39:24;;;;;;;6.78;4.70;;;;;;;24.46;57.19;64532.91;5044872;28;20317;-77
2022/05/24 09:41:57;;;;;;;11.75;6.28;;;;;;;24.41;57.60;64525.59;5059323;28;20220;-77
2022/05/24 09:44:27;;;;;;;5.50;4.97;;;;;;;24.29;57.40;64512.50;5050038;28;20221;-77
2022/05/24 09:46:55;;;;;;;5.68;4.97;;;;;;;24.06;56.99;64491.03;5045323;28;20221;-76
2022/05/24 09:49:32;;;;;;;5.50;4.93;;;;;;;24.23;56.86;64506.75;5043433;28;20240;-76
2022/05/24 09:52:11;;;;;;;9.15;4.93;;;;;;;24.21;57.79;64509.88;5030449;28;20193;-76
2022/05/24 09:54:51;;;;;;;8.05;5.65;;;;;;;24.35;58.47;64521.91;5036975;28;20258;-77
2022/05/24 09:57:23;;;;;;;8.02;5.78;;;;;;;24.44;57.80;64530.81;5045351;28;20236;-76
2022/05/24 10:00:03;;;;;;;5.68;5.18;;;;;;;24.79;55.91;64568.00;5043485;28;20221;-77
2022/05/24 10:02:33;;;;;;;5.72;4.65;;;;;;;25.22;57.59;64609.91;5044072;28;20549;-78
2022/05/24 10:05:02;;;;;;;5.82;5.18;;;;;;;25.65;55.85;64657.59;5044401;28;20358;-76
2022/05/24 10:07:30;;;;;;;7.03;5.20;;;;;;;25.16;53.78;64608.84;5043926;28;20193;-77
2022/05/24 10:10:07;;;;;;;4.72;4.43;;;;;;;25.20;54.50;64607.28;5059409;28;20293;-76
2022/05/24 10:12:49;;;;;;;5.30;4.80;;;;;;;25.26;53.16;64616.19;5043838;28;20204;-77
2022/05/24 10:15:30;;;;;;;5.28;4.72;;;;;;;25.25;55.58;64615.16;5044464;28;20394;-78
2022/05/24 10:18:30;;;;;;;5.30;4.90;;;;;;;25.18;55.62;64605.72;5043728;28;20197;-76
2022/05/24 10:21:09;;;;;;;9.02;5.50;;;;;;;25.55;55.49;64646.59;5044664;28;20441;-76
2022/05/24 10:23:46;;;;;;;7.10;5.32;;;;;;;25.80;54.14;64675.41;5043740;28;20232;-77
2022/05/24 10:26:23;;;;;;;4.95;4.57;;;;;;;25.72;52.15;64662.31;5047828;28;20242;-77
2022/05/24 10:29:01;;;;;;;5.53;4.85;;;;;;;25.80;51.80;64672.81;5053672;28;20231;-77
2022/05/24 10:31:46;;;;;;;5.55;4.97;;;;;;;25.62;50.59;64651.84;5044520;28;20201;-76
2022/05/24 10:40:09;;;;;;;8.10;5.25;;;;;;;25.36;52.71;64629.28;5013260;28;20364;-76
2022/05/24 10:42:53;;;;;;;4.93;4.63;;;;;;;25.62;51.96;64653.94;5023897;28;20545;-77
2022/05/24 10:45:24;;;;;;;9.20;8.38;;;;;;;26.01;55.86;64692.19;5052728;28;20287;-76
2022/05/24 10:48:00;;;;;;;13.95;12.35;;;;;;;26.08;55.32;64700.06;5046889;28;20285;-75
2022/05/24 10:50:32;;;;;;;9.50;8.00;;;;;;;26.24;57.01;64718.94;5043825;28;20288;-76
2022/05/24 10:53:05;;;;;;;9.23;7.10;;;;;;;26.61;54.29;64757.22;5042203;28;20199;-77
2022/05/24 10:55:37;;;;;;;9.10;4.63;;;;;;;26.62;50.65;64755.63;5043113;28;20536;-77
2022/05/24 10:58:09;;;;;;;7.20;5.00;;;;;;;26.66;50.86;64762.44;5043168;28;20486;-76
2022/05/24 11:00:40;;;;;;;5.75;4.47;;;;;;;26.85;52.42;64780.28;5042710;28;20260;-78
2022/05/24 11:03:11;;;;;;;5.13;4.55;;;;;;;27.03;51.70;64799.19;5053145;28;20295;-77
2022/05/24 11:05:43;;;;;;;5.53;4.70;;;;;;;27.10;51.75;64811.22;5049860;28;20426;-77
2022/05/24 11:08:26;;;;;;;6.20;5.40;;;;;;;27.18;51.89;64817.53;5043511;28;20192;-77
2022/05/24 11:10:53;;;;;;;5.20;4.85;;;;;;;26.79;52.26;64774.00;5041662;28;20280;-77
2022/05/24 11:13:35;;;;;;;6.38;5.05;;;;;;;26.74;50.40;64771.38;5060969;28;20204;-76
2022/05/24 11:16:24;;;;;;;4.95;4.68;;;;;;;26.79;50.18;64778.72;5041625;28;20262;-77
2022/05/24 11:18:53;;;;;;;5.20;4.70;;;;;;;26.64;50.49;64760.34;5042672;28;20499;-77
2022/05/24 11:21:26;;;;;;;5.38;4.85;;;;;;;26.75;51.70;64777.16;5050137;28;20231;-77
2022/05/24 11:23:59;;;;;;;5.82;5.13;;;;;;;27.00;52.76;64796.03;5048796;28;20232;-77
2022/05/24 11:26:29;;;;;;;5.25;4.82;;;;;;;27.28;51.03;64822.28;5042938;28;20264;-77
2022/05/24 11:28:59;;;;;;;10.73;5.53;;;;;;;27.28;48.61;64827.50;5041442;28;20216;-77
2022/05/24 11:31:40;;;;;;;4.93;4.47;;;;;;;26.74;51.78;64768.78;5061918;28;20208;-77
2022/05/24 11:34:18;;;;;;;5.10;4.60;;;;;;;26.92;51.59;64787.13;5039841;28;20264;-77
2022/05/24 11:36:48;;;;;;;6.78;5.30;;;;;;;26.82;50.05;64774.53;5040055;28;20379;-77
2022/05/24 11:39:25;;;;;;;5.28;4.88;;;;;;;27.00;49.59;64798.13;5044245;28;20235;-77
2022/05/24 11:42:32;;;;;;;6.90;4.82;;;;;;;27.22;51.57;64824.34;5051142;28;20220;-77
2022/05/24 11:45:00;;;;;;;8.07;5.35;;;;;;;27.54;48.96;64854.81;5042456;28;20217;-77
2022/05/24 11:47:57;;;;;;;8.35;5.03;;;;;;;27.85;50.28;64881.56;5044095;28;20239;-77
2022/05/24 11:50:44;;;;;;;8.82;4.80;;;;;;;28.11;49.94;64917.25;4999505;28;20221;-77
2022/05/24 11:53:31;;;;;;;8.18;5.00;;;;;;;28.38;49.55;64943.00;5042434;28;20192;-77
2022/05/24 11:56:19;;;;;;;5.82;5.40;;;;;;;28.65;47.18;64970.31;5025328;28;20244;-76
2022/05/24 11:58:56;;;;;;;5.70;5.22;;;;;;;28.14;44.96;64917.28;5026834;28;20232;-77
2022/05/24 12:01:45;;;;;;;9.70;5.63;;;;;;;28.37;47.29;64938.81;5027065;28;20214;-78
2022/05/24 12:10:49;;;;;;;12.45;5.85;;;;;;;29.62;44.92;65069.09;5046170;28;20397;-78
2022/05/24 12:13:41;;;;;;;10.73;5.35;;;;;;;30.03;43.14;65114.84;5003986;28;20196;-76
2022/05/24 12:16:33;;;;;;;5.82;5.18;;;;;;;29.79;44.54;65094.84;5061056;28;20345;-77
2022/05/24 12:19:03;;;;;;;6.72;5.60;;;;;;;30.05;43.12;65120.09;5048096;28;20223;-78
2022/05/24 12:21:53;;;;;;;6.45;5.57;;;;;;;29.99;44.35;65110.63;5048067;28;20204;-76
2022/05/24 12:24:45;;;;;;;7.88;5.00;;;;;;;30.69;42.52;65184.25;5061076;28;20238;-77
2022/05/24 12:27:37;;;;;;;6.07;5.28;;;;;;;30.78;41.60;65193.72;5057950;28;20244;-77
2022/05/24 12:30:32;;;;;;;6.00;5.28;;;;;;;31.17;40.77;65232.13;5042661;28;20284;-77
2022/05/24 12:33:11;;;;;;;6.18;5.53;;;;;;;31.19;41.22;65236.31;5044341;28;20205;-76